Portada
METAR-TAF:

METAR-TAF

Aeropuertos :

Aeropuerto de Touho

Touho, Nueva Caledonia

latitud: 20-47-25S, longitud: 165-15-34E, altitud: 3 m

METAR: falta

Hora: 23:08 (12:08 UTC)

Pronóstico

El informe se hizo hace 3 horas y 11 minutos, a las 08:57 UTC
Pronóstico válido del 02 a las 08 UTC al 03 a las 06 UTC
Viento 8 kt del este-sureste
Visibilidad 10 km o más
Nubes dispersas a una altura de 1400 ft
Cielo nuboso a una altura de 2500 ft
Probabilidad 40% :
Temporalmente
del 02 a las 18 UTC al 02 a las 22 UTC
Visibilidad: 4000 m
Cielo nuboso a una altura de 1200 ft
lluvia, llovizna

TAF: NWWU 020857Z 0208/0306 12008KT 9999 SCT014 BKN025 PROB40 TEMPO 0218/0222 4000 RADZ BKN012

Observaciones y pronósticos meteorológicos de más de 4000 aeropuertos (mensajes METAR y TAF).

Los puntos amarillos y rojos representan las estaciones disponibles.

Ponga el ratón en el punto deseado para ver el nombre de la estación.

Haga clic para ver las observaciones y los pronósticos meteorológicos.

Para cambiar el mapa : haga clic en los botones verdes con una cruz de color negro para hacer un zoom, en el botón verde con un guión para alejar o en las flechas verdes para mapas adyacentes.


METAR-TAF: